createdAt,value
2022-12-03T00:01:40.107Z,26.13
2022-12-03T00:04:09.857Z,26.04
2022-12-03T00:06:39.667Z,26.00
2022-12-03T00:09:13.505Z,25.96
2022-12-03T00:11:43.605Z,25.89
2022-12-03T00:14:13.414Z,25.78
2022-12-03T00:16:43.124Z,25.71
2022-12-03T00:19:13.000Z,25.58
2022-12-03T00:21:42.717Z,25.52
2022-12-03T00:24:12.384Z,25.39
2022-12-03T00:26:42.112Z,25.27
2022-12-03T00:29:12.399Z,25.17
2022-12-03T00:31:43.293Z,25.07
2022-12-03T00:34:14.028Z,24.97
2022-12-03T00:36:43.958Z,24.94
2022-12-03T00:39:13.859Z,24.93
2022-12-03T00:41:43.986Z,24.82
2022-12-03T00:44:13.672Z,24.75
2022-12-03T00:46:43.432Z,24.66
2022-12-03T00:49:13.177Z,24.59
2022-12-03T00:51:43.028Z,24.55
2022-12-03T00:54:12.835Z,24.51
2022-12-03T00:56:42.843Z,24.43
2022-12-03T00:59:13.000Z,24.38
2022-12-03T01:01:43.191Z,24.30
2022-12-03T01:04:12.983Z,24.28
2022-12-03T01:06:42.832Z,24.22
2022-12-03T01:09:12.573Z,24.22
2022-12-03T01:11:42.912Z,24.17
2022-12-03T01:14:17.859Z,24.19
2022-12-03T01:16:49.226Z,24.19
2022-12-03T01:19:20.534Z,24.17
2022-12-03T01:21:52.629Z,24.19
2022-12-03T01:24:23.549Z,24.19
2022-12-03T01:26:53.811Z,24.19
2022-12-03T01:29:23.619Z,24.17
2022-12-03T01:32:11.711Z,24.18
2022-12-03T01:34:41.963Z,24.19
2022-12-03T01:37:11.806Z,24.14
2022-12-03T01:39:41.955Z,24.25
2022-12-03T01:42:36.052Z,24.28
2022-12-03T01:45:06.624Z,24.25
2022-12-03T01:47:38.151Z,24.25
2022-12-03T01:50:10.751Z,24.19
2022-12-03T01:52:41.821Z,24.21
2022-12-03T01:55:21.262Z,24.12
2022-12-03T01:58:00.875Z,24.12
2022-12-03T02:00:32.969Z,24.09
2022-12-03T02:03:08.879Z,24.11
2022-12-03T02:05:39.865Z,24.09
2022-12-03T02:08:32.635Z,24.08
2022-12-03T02:11:28.494Z,24.07
2022-12-03T02:14:03.578Z,24.02
2022-12-03T02:16:33.798Z,24.04
2022-12-03T02:19:04.484Z,23.97
2022-12-03T02:21:47.882Z,23.96
2022-12-03T02:24:23.817Z,24.00
2022-12-03T02:26:53.733Z,23.94
2022-12-03T02:29:23.859Z,23.94
2022-12-03T02:31:53.583Z,23.98
2022-12-03T02:34:44.950Z,23.96
2022-12-03T02:37:28.740Z,23.94
2022-12-03T02:40:02.565Z,23.96
2022-12-03T02:42:38.865Z,24.05
2022-12-03T02:45:13.859Z,24.11
2022-12-03T02:48:08.019Z,24.04
2022-12-03T02:50:41.297Z,24.07
2022-12-03T02:53:16.457Z,24.05
2022-12-03T02:55:47.638Z,24.01
2022-12-03T02:58:18.133Z,23.97
2022-12-03T03:00:48.346Z,24.05
2022-12-03T03:03:19.889Z,24.05
2022-12-03T03:05:51.086Z,24.07
2022-12-03T03:08:21.889Z,24.08
2022-12-03T03:10:52.107Z,24.15
2022-12-03T03:13:22.628Z,24.15
2022-12-03T03:15:52.553Z,24.14
2022-12-03T03:18:22.307Z,24.14
2022-12-03T03:20:52.420Z,24.05
2022-12-03T03:23:26.290Z,24.07
2022-12-03T03:26:11.321Z,23.94
2022-12-03T03:28:45.706Z,23.91
2022-12-03T03:31:19.968Z,23.87
2022-12-03T03:33:51.568Z,23.84
2022-12-03T03:36:22.139Z,23.80
2022-12-03T03:38:51.879Z,23.77
2022-12-03T03:41:23.160Z,23.73
2022-12-03T03:43:53.258Z,23.68
2022-12-03T03:46:24.359Z,23.64
2022-12-03T03:48:54.439Z,23.60
2022-12-03T03:51:24.222Z,23.59
2022-12-03T03:53:54.347Z,23.54
2022-12-03T03:56:24.410Z,23.54
2022-12-03T03:58:54.293Z,23.54
2022-12-03T04:01:25.482Z,23.56
2022-12-03T04:03:56.005Z,23.50
2022-12-03T04:06:25.780Z,23.45
2022-12-03T04:08:55.827Z,23.40
2022-12-03T04:11:43.419Z,23.39
2022-12-03T04:14:13.276Z,23.33
2022-12-03T04:16:43.345Z,23.29
2022-12-03T04:19:13.109Z,23.27
2022-12-03T04:22:01.046Z,23.22
2022-12-03T04:24:32.172Z,23.18
2022-12-03T04:27:20.603Z,23.18
2022-12-03T04:29:50.733Z,23.19
2022-12-03T04:32:38.646Z,23.15
2022-12-03T04:35:27.135Z,23.18
2022-12-03T04:37:57.172Z,23.19
2022-12-03T04:40:45.324Z,23.18
2022-12-03T04:43:15.292Z,23.19
2022-12-03T04:45:45.054Z,23.20
2022-12-03T04:48:14.852Z,23.19
2022-12-03T04:50:44.830Z,23.15
2022-12-03T04:53:14.935Z,23.16
2022-12-03T04:55:44.623Z,23.13
2022-12-03T04:58:14.307Z,23.12
2022-12-03T05:00:44.397Z,23.12
2022-12-03T05:03:14.032Z,23.10
2022-12-03T05:05:43.742Z,23.10
2022-12-03T05:08:13.523Z,23.10
2022-12-03T05:10:43.496Z,23.08
2022-12-03T05:13:13.180Z,23.06
2022-12-03T05:15:43.789Z,23.06
2022-12-03T05:18:13.587Z,23.05
2022-12-03T05:20:46.942Z,23.08
2022-12-03T05:23:21.549Z,23.02
2022-12-03T05:25:51.263Z,22.99
2022-12-03T05:28:23.272Z,22.96
2022-12-03T05:30:53.972Z,22.92
2022-12-03T05:33:23.979Z,22.98
2022-12-03T05:35:53.692Z,22.94
2022-12-03T05:38:23.794Z,22.98
2022-12-03T05:40:53.483Z,22.98
2022-12-03T05:43:23.307Z,22.99
2022-12-03T05:45:53.417Z,22.99
2022-12-03T05:48:23.134Z,22.96
2022-12-03T05:50:52.830Z,22.95
2022-12-03T05:53:22.509Z,22.98
2022-12-03T05:55:52.553Z,22.96
2022-12-03T05:58:22.264Z,22.96
2022-12-03T06:00:52.300Z,22.96
2022-12-03T06:03:22.588Z,22.94
2022-12-03T06:05:52.493Z,22.95
2022-12-03T06:08:22.230Z,22.95
2022-12-03T06:10:52.016Z,22.91
2022-12-03T06:13:21.728Z,22.94
2022-12-03T06:15:51.434Z,22.94
2022-12-03T06:18:21.700Z,22.92
2022-12-03T06:20:51.381Z,22.92
2022-12-03T06:23:21.061Z,22.89
2022-12-03T06:25:51.983Z,22.91
2022-12-03T06:28:22.047Z,22.89
2022-12-03T06:30:51.808Z,22.98
2022-12-03T06:33:21.743Z,22.99
2022-12-03T06:35:51.702Z,22.94
2022-12-03T06:38:21.377Z,22.94
2022-12-03T06:40:51.634Z,22.91
2022-12-03T06:43:21.324Z,22.89
2022-12-03T06:45:51.022Z,22.87
2022-12-03T06:48:21.201Z,22.79
2022-12-03T06:50:50.871Z,22.82
2022-12-03T06:53:20.569Z,22.81
2022-12-03T06:55:51.120Z,22.82
2022-12-03T06:58:21.647Z,22.85
2022-12-03T07:00:51.306Z,22.85
2022-12-03T07:03:21.064Z,22.84
2022-12-03T07:05:50.803Z,22.85
2022-12-03T07:08:20.480Z,22.87
2022-12-03T07:10:50.254Z,22.88
2022-12-03T07:13:19.966Z,22.88
2022-12-03T07:15:50.606Z,22.87
2022-12-03T07:18:20.334Z,23.01
2022-12-03T07:20:50.116Z,23.05
2022-12-03T07:23:19.794Z,23.03
2022-12-03T07:25:49.635Z,23.01
2022-12-03T07:28:19.318Z,23.03
2022-12-03T07:30:49.365Z,23.09
2022-12-03T07:33:19.028Z,23.05
2022-12-03T07:35:48.798Z,23.10
2022-12-03T07:38:18.459Z,23.03
2022-12-03T07:40:50.876Z,22.99
2022-12-03T07:43:21.288Z,22.99
2022-12-03T07:45:51.019Z,22.98
2022-12-03T07:48:21.621Z,22.96
2022-12-03T07:50:51.391Z,22.96
2022-12-03T07:53:21.137Z,23.01
2022-12-03T07:55:50.820Z,22.95
2022-12-03T07:58:20.541Z,22.99
2022-12-03T08:00:51.203Z,22.99
2022-12-03T08:03:21.263Z,22.96
2022-12-03T08:05:51.018Z,22.96
2022-12-03T08:08:21.535Z,22.94
2022-12-03T08:10:51.193Z,22.91
2022-12-03T08:13:21.292Z,22.91
2022-12-03T08:15:51.090Z,22.91
2022-12-03T08:18:22.483Z,22.91
2022-12-03T08:20:53.332Z,22.91
2022-12-03T08:23:25.753Z,22.92
2022-12-03T08:25:56.927Z,22.92
2022-12-03T08:28:29.245Z,22.95
2022-12-03T08:31:19.387Z,22.94
2022-12-03T08:33:52.706Z,22.94
2022-12-03T08:36:32.288Z,22.92
2022-12-03T08:39:06.835Z,22.94
2022-12-03T08:41:56.314Z,22.94
2022-12-03T08:44:30.392Z,22.96
2022-12-03T08:47:23.320Z,22.96
2022-12-03T08:49:59.534Z,23.03
2022-12-03T08:52:33.630Z,23.02
2022-12-03T08:55:30.567Z,23.06
2022-12-03T08:58:00.960Z,23.12
2022-12-03T09:00:30.640Z,23.19
2022-12-03T09:03:02.881Z,23.22
2022-12-03T09:05:34.528Z,23.23
2022-12-03T09:08:04.543Z,23.33
2022-12-03T09:10:34.278Z,23.34
2022-12-03T09:13:04.029Z,23.43
2022-12-03T09:15:34.976Z,23.45
2022-12-03T09:18:05.466Z,23.51
2022-12-03T09:20:35.436Z,23.49
2022-12-03T09:23:05.432Z,23.51
2022-12-03T09:25:35.141Z,23.51
2022-12-03T09:28:04.857Z,23.54
2022-12-03T09:30:34.546Z,23.50
2022-12-03T09:33:04.361Z,23.57
2022-12-03T09:35:35.451Z,23.59
2022-12-03T09:38:05.520Z,23.61
2022-12-03T09:40:36.035Z,23.64
2022-12-03T09:43:07.396Z,23.70
2022-12-03T09:45:37.408Z,23.77
2022-12-03T09:48:07.491Z,23.87
2022-12-03T09:50:41.041Z,23.96
2022-12-03T09:53:15.984Z,24.05
2022-12-03T09:55:47.889Z,24.09
2022-12-03T09:58:20.094Z,24.19
2022-12-03T10:00:53.740Z,24.24
2022-12-03T10:03:30.025Z,24.22
2022-12-03T10:06:00.206Z,24.21
2022-12-03T10:08:33.687Z,24.29
2022-12-03T10:11:04.710Z,24.40
2022-12-03T10:13:36.299Z,24.53
2022-12-03T10:16:06.949Z,24.57
2022-12-03T10:18:41.457Z,24.67
2022-12-03T10:21:19.330Z,24.83
2022-12-03T10:23:55.036Z,24.80
2022-12-03T10:26:41.767Z,24.73
2022-12-03T10:29:16.241Z,24.80
2022-12-03T10:31:46.548Z,24.76
2022-12-03T10:34:35.863Z,24.80
2022-12-03T10:37:21.598Z,24.91
2022-12-03T10:40:10.418Z,25.06
2022-12-03T10:42:42.340Z,25.24
2022-12-03T10:45:21.802Z,25.35
2022-12-03T10:48:26.552Z,25.45
2022-12-03T10:51:08.196Z,25.68
2022-12-03T10:53:41.824Z,25.68
2022-12-03T10:56:20.455Z,25.82
2022-12-03T10:58:51.048Z,25.85
2022-12-03T11:01:24.638Z,25.75
2022-12-03T11:03:57.000Z,25.72
2022-12-03T11:06:26.901Z,25.88
2022-12-03T11:09:02.590Z,26.36
2022-12-03T11:11:35.707Z,26.26
2022-12-03T11:14:06.455Z,26.23
2022-12-03T11:16:42.411Z,26.24
2022-12-03T11:19:19.854Z,26.24
2022-12-03T11:22:07.840Z,26.50
2022-12-03T11:24:39.969Z,26.48
2022-12-03T11:27:19.432Z,26.41
2022-12-03T11:29:55.031Z,26.50
2022-12-03T11:32:40.802Z,26.36
2022-12-03T11:35:27.424Z,26.33
2022-12-03T11:38:17.320Z,26.37
2022-12-03T11:41:11.584Z,26.44
2022-12-03T11:43:57.560Z,26.45
2022-12-03T11:46:39.899Z,26.39
2022-12-03T11:49:37.754Z,26.45
2022-12-03T11:52:25.122Z,26.20
2022-12-03T11:55:03.765Z,26.23
2022-12-03T11:57:37.887Z,26.17
2022-12-03T12:00:10.185Z,26.10
2022-12-03T12:02:45.046Z,26.10
2022-12-03T12:05:23.671Z,26.19
2022-12-03T12:07:56.088Z,26.22
2022-12-03T12:10:51.530Z,26.23
2022-12-03T12:13:33.150Z,26.50
2022-12-03T12:16:06.601Z,26.65
2022-12-03T12:18:49.928Z,26.48
2022-12-03T12:21:48.692Z,26.71
2022-12-03T12:24:49.091Z,27.30
2022-12-03T12:27:32.899Z,28.18
2022-12-03T12:30:19.581Z,28.09
2022-12-03T12:33:03.666Z,28.34
2022-12-03T12:35:34.056Z,28.49
2022-12-03T12:38:12.459Z,28.48
2022-12-03T12:40:46.237Z,27.98
2022-12-03T12:43:25.852Z,28.04
2022-12-03T12:45:58.333Z,28.05
2022-12-03T12:48:35.516Z,28.36
2022-12-03T12:51:13.824Z,30.41
2022-12-03T12:53:44.082Z,31.70
2022-12-03T12:56:25.962Z,31.70
2022-12-03T12:58:58.244Z,32.24
2022-12-03T13:01:31.556Z,31.88
2022-12-03T13:04:01.537Z,31.46
2022-12-03T13:06:33.696Z,29.90
2022-12-03T13:09:03.601Z,29.18
2022-12-03T13:11:58.559Z,28.87
2022-12-03T13:14:33.857Z,28.53
2022-12-03T13:17:20.165Z,28.44
2022-12-03T13:19:58.230Z,28.56
2022-12-03T13:22:33.662Z,28.65
2022-12-03T13:25:50.518Z,28.73
2022-12-03T13:28:15.655Z,29.07
2022-12-03T13:30:45.414Z,29.27
2022-12-03T13:33:24.973Z,29.13
2022-12-03T13:35:58.264Z,29.18
2022-12-03T13:38:29.930Z,29.20
2022-12-03T13:41:02.824Z,29.30
2022-12-03T13:43:34.340Z,29.20
2022-12-03T13:46:05.201Z,29.24
2022-12-03T13:48:38.269Z,29.35
2022-12-03T13:51:35.012Z,29.57
2022-12-03T13:54:04.951Z,29.55
2022-12-03T13:56:35.161Z,29.55
2022-12-03T13:59:05.989Z,29.57
2022-12-03T14:01:37.345Z,30.08
2022-12-03T14:04:07.525Z,29.88
2022-12-03T14:06:37.376Z,29.62
2022-12-03T14:09:07.409Z,29.66
2022-12-03T14:11:55.626Z,29.98
2022-12-03T14:14:25.655Z,30.98
2022-12-03T14:16:59.833Z,32.24
2022-12-03T14:19:31.636Z,32.55
2022-12-03T14:22:01.961Z,32.49
2022-12-03T14:24:32.074Z,32.32
2022-12-03T14:27:01.769Z,32.35
2022-12-03T14:29:34.655Z,32.23
2022-12-03T14:32:05.238Z,31.63
2022-12-03T14:34:35.185Z,31.02
2022-12-03T14:37:05.306Z,30.92
2022-12-03T14:39:35.150Z,30.72
2022-12-03T14:42:17.699Z,30.53
2022-12-03T14:44:49.719Z,30.48
2022-12-03T14:47:23.672Z,30.54
2022-12-03T14:49:54.260Z,30.68
2022-12-03T14:52:24.894Z,30.48
2022-12-03T14:54:54.687Z,30.30
2022-12-03T14:57:24.853Z,30.70
2022-12-03T14:59:54.798Z,30.87
2022-12-03T15:02:24.711Z,30.84
2022-12-03T15:04:54.672Z,31.05
2022-12-03T15:07:24.485Z,31.09
2022-12-03T15:09:54.645Z,31.08
2022-12-03T15:12:24.707Z,31.77
2022-12-03T15:14:55.107Z,31.65
2022-12-03T15:17:31.400Z,31.19
2022-12-03T15:20:02.226Z,31.32
2022-12-03T15:22:32.167Z,31.66
2022-12-03T15:25:03.599Z,31.73
2022-12-03T15:27:34.129Z,31.62
2022-12-03T15:30:04.304Z,31.45
2022-12-03T15:32:34.084Z,31.22
2022-12-03T15:35:03.851Z,31.22
2022-12-03T15:37:33.575Z,31.23
2022-12-03T15:40:03.383Z,31.18
2022-12-03T15:42:33.170Z,30.88
2022-12-03T15:45:02.923Z,30.78
2022-12-03T15:47:36.026Z,30.90
2022-12-03T15:50:07.011Z,31.15
2022-12-03T15:52:37.514Z,31.11
2022-12-03T15:55:07.743Z,30.90
2022-12-03T15:57:37.662Z,30.77
2022-12-03T16:00:09.437Z,30.57
2022-12-03T16:02:45.046Z,30.88
2022-12-03T16:05:18.142Z,30.90
2022-12-03T16:07:47.863Z,31.35
2022-12-03T16:10:18.732Z,31.93
2022-12-03T16:12:48.943Z,32.14
2022-12-03T16:15:25.140Z,32.41
2022-12-03T16:17:57.686Z,32.95
2022-12-03T16:20:27.564Z,32.89
2022-12-03T16:22:57.834Z,33.85
2022-12-03T16:25:30.327Z,34.31
2022-12-03T16:28:00.531Z,34.71
2022-12-03T16:30:30.565Z,35.03
2022-12-03T16:33:00.375Z,34.64
2022-12-03T16:35:30.390Z,34.67
2022-12-03T16:38:13.053Z,34.84
2022-12-03T16:40:44.625Z,34.61
2022-12-03T16:43:14.540Z,32.90
2022-12-03T16:45:44.255Z,32.10
2022-12-03T16:48:14.260Z,32.75
2022-12-03T16:50:44.229Z,34.09
2022-12-03T16:53:14.345Z,34.97
2022-12-03T16:55:44.181Z,34.61
2022-12-03T16:58:14.059Z,34.28
2022-12-03T17:00:43.785Z,33.91
2022-12-03T17:03:13.651Z,32.93
2022-12-03T17:05:43.565Z,32.31
2022-12-03T17:08:13.642Z,32.06
2022-12-03T17:10:43.913Z,31.74
2022-12-03T18:01:28.632Z,32.07
2022-12-03T18:03:59.286Z,32.28
2022-12-03T18:06:29.632Z,32.07
2022-12-03T18:09:00.070Z,32.00
2022-12-03T18:11:30.061Z,32.76
2022-12-03T18:13:59.916Z,32.37
2022-12-03T18:16:30.975Z,33.02
2022-12-03T18:19:06.208Z,33.53
2022-12-03T18:21:38.435Z,33.14
2022-12-03T18:24:08.782Z,33.03
2022-12-03T18:26:38.762Z,32.92
2022-12-03T18:29:09.394Z,32.69
2022-12-03T18:31:39.327Z,32.03
2022-12-03T18:34:09.055Z,31.26
2022-12-03T18:36:38.819Z,31.12
2022-12-03T18:39:10.732Z,30.72
2022-12-03T18:41:41.009Z,30.57
2022-12-03T18:44:12.263Z,30.32
2022-12-03T18:46:53.638Z,29.92
2022-12-03T18:49:24.737Z,29.65
2022-12-03T18:51:59.003Z,29.47
2022-12-03T18:54:29.350Z,29.51
2022-12-03T18:56:59.111Z,29.47
2022-12-03T18:59:30.132Z,29.57
2022-12-03T19:02:00.290Z,29.51
2022-12-03T19:04:30.336Z,29.44
2022-12-03T19:07:00.144Z,29.37
2022-12-03T19:09:30.053Z,29.31
2022-12-03T19:11:59.865Z,29.23
2022-12-03T19:14:29.796Z,29.21
2022-12-03T19:16:59.509Z,29.11
2022-12-03T19:19:29.422Z,29.04
2022-12-03T19:21:59.592Z,28.92
2022-12-03T19:24:30.607Z,28.90
2022-12-03T19:27:01.367Z,28.83
2022-12-03T19:29:31.370Z,28.60
2022-12-03T19:32:01.886Z,28.48
2022-12-03T19:34:32.001Z,28.41
2022-12-03T19:37:01.723Z,28.39
2022-12-03T19:39:31.454Z,28.38
2022-12-03T19:42:01.510Z,28.27
2022-12-03T19:44:31.925Z,28.19
2022-12-03T19:47:03.310Z,28.15
2022-12-03T19:49:33.666Z,28.18
2022-12-03T19:52:04.804Z,28.19
2022-12-03T19:54:34.933Z,28.05
2022-12-03T19:57:05.327Z,27.93
2022-12-03T19:59:35.100Z,27.86
2022-12-03T20:02:05.230Z,27.80
2022-12-03T20:04:35.185Z,27.63
2022-12-03T20:07:05.812Z,27.56
2022-12-03T20:09:35.570Z,27.45
2022-12-03T20:12:05.487Z,27.16
2022-12-03T20:14:35.220Z,26.68
2022-12-03T20:17:04.955Z,26.14
2022-12-03T20:19:34.643Z,25.61
2022-12-03T20:22:04.405Z,25.45
2022-12-03T20:24:34.148Z,25.31
2022-12-03T20:27:03.869Z,25.15
2022-12-03T20:29:33.579Z,25.04
2022-12-03T20:32:04.270Z,24.98
2022-12-03T20:34:37.930Z,24.93
2022-12-03T20:37:08.007Z,24.93
2022-12-03T20:39:37.754Z,24.96
2022-12-03T20:42:07.777Z,25.02
2022-12-03T20:44:39.375Z,25.11
2022-12-03T20:47:09.272Z,25.13
2022-12-03T20:49:40.306Z,25.17
2022-12-03T20:52:10.492Z,25.14
2022-12-03T20:54:41.152Z,25.13
2022-12-03T20:57:11.290Z,25.14
2022-12-03T20:59:41.047Z,25.15
2022-12-03T21:02:12.104Z,25.18
2022-12-03T21:04:42.332Z,25.23
2022-12-03T21:07:12.896Z,25.31
2022-12-03T21:09:43.128Z,25.30
2022-12-03T21:12:12.837Z,25.31
2022-12-03T21:14:42.536Z,25.28
2022-12-03T21:17:12.258Z,25.41
2022-12-03T21:19:42.220Z,25.44
2022-12-03T21:22:12.095Z,25.30
2022-12-03T21:24:43.999Z,25.21
2022-12-03T21:27:19.844Z,25.17
2022-12-03T21:29:51.553Z,25.07
2022-12-03T21:32:22.022Z,24.96
2022-12-03T21:34:52.057Z,24.90
2022-12-03T21:37:21.800Z,24.79
2022-12-03T21:39:51.564Z,24.72
2022-12-03T21:42:36.013Z,24.65
2022-12-03T21:45:07.864Z,24.55
2022-12-03T21:47:37.807Z,24.40
2022-12-03T21:50:09.420Z,24.35
2022-12-03T21:52:39.709Z,24.30
2022-12-03T21:55:09.746Z,24.25
2022-12-03T21:57:39.883Z,24.22
2022-12-03T22:00:10.510Z,24.17
2022-12-03T22:02:41.408Z,24.17
2022-12-03T22:05:12.665Z,24.15
2022-12-03T22:07:43.008Z,24.07
2022-12-03T22:10:13.902Z,23.98
2022-12-03T22:12:43.896Z,23.93
2022-12-03T22:15:18.425Z,23.85
2022-12-03T22:17:49.620Z,23.82
2022-12-03T22:20:19.515Z,23.80
2022-12-03T22:22:49.244Z,23.75
2022-12-03T22:25:19.094Z,23.74
2022-12-03T22:27:48.784Z,23.66
2022-12-03T22:30:18.622Z,23.57
2022-12-03T22:32:49.179Z,23.46
2022-12-03T22:35:19.306Z,23.39
2022-12-03T22:37:48.974Z,23.33
2022-12-03T22:40:18.985Z,23.26
2022-12-03T22:42:51.025Z,23.10
2022-12-03T22:45:23.863Z,22.99
2022-12-03T22:47:53.881Z,22.95
2022-12-03T22:50:23.759Z,22.87
2022-12-03T22:52:53.429Z,22.91
2022-12-03T22:55:23.095Z,22.88
2022-12-03T22:57:52.777Z,22.88
2022-12-03T23:00:31.280Z,22.98
2022-12-03T23:03:01.646Z,22.99
2022-12-03T23:05:37.955Z,23.01
2022-12-03T23:08:09.961Z,22.99
2022-12-03T23:10:42.713Z,23.12
2022-12-03T23:13:13.586Z,23.22
2022-12-03T23:15:48.666Z,23.18
2022-12-03T23:18:20.148Z,23.08
2022-12-03T23:20:52.942Z,22.89
2022-12-03T23:23:27.446Z,22.82
2022-12-03T23:26:06.039Z,22.96
2022-12-03T23:28:38.682Z,22.84
2022-12-03T23:31:26.295Z,22.82
2022-12-03T23:33:56.931Z,22.85
2022-12-03T23:36:28.517Z,22.76
2022-12-03T23:38:58.622Z,22.73
2022-12-03T23:41:28.683Z,22.71
2022-12-03T23:43:59.256Z,22.65
2022-12-03T23:46:29.575Z,22.62
2022-12-03T23:49:00.614Z,22.61
2022-12-03T23:51:30.786Z,22.62
2022-12-03T23:54:00.455Z,22.61
2022-12-03T23:56:32.133Z,22.67
2022-12-03T23:59:02.188Z,22.79
